Time;durP1;ratioP1;P1;durP2;ratioP2;P2;SDS_P1;SDS_P2;PMS_P1;PMS_P2;Temp;Humidity;BMP_temperature;BMP_pressure;BME280_temperature;BME280_humidity;BME280_pressure;Samples;Min_cycle;Max_cycle;Signal;HPM_P1;HPM_P2
2024/01/04 00:01:39;;;;;;;66.85;37.85;;;;;;;7.58;86.10;100266.25;4954875;28;20142;-81
2024/01/04 00:04:06;;;;;;;74.28;39.05;;;;;;;7.65;85.86;100285.94;4959375;28;20490;-81
2024/01/04 00:06:33;;;;;;;62.13;38.70;;;;;;;7.49;86.08;100247.53;4957510;28;20300;-81
2024/01/04 00:09:01;;;;;;;66.43;36.53;;;;;;;7.66;85.21;100274.38;4960111;28;20050;-82
2024/01/04 00:11:28;;;;;;;63.60;38.25;;;;;;;7.61;85.54;100281.84;4964793;28;20191;-82
2024/01/04 00:13:55;;;;;;;68.60;40.03;;;;;;;7.62;85.52;100287.00;4956145;28;20455;-83
2024/01/04 00:16:22;;;;;;;72.57;40.60;;;;;;;7.48;85.98;100266.16;4953729;28;20495;-80
2024/01/04 00:18:49;;;;;;;64.90;38.47;;;;;;;7.60;85.80;100301.31;4958554;28;20398;-80
2024/01/04 00:21:16;;;;;;;72.13;41.55;;;;;;;7.60;86.05;100303.97;4963977;28;20070;-82
2024/01/04 00:23:43;;;;;;;71.80;42.47;;;;;;;7.47;85.40;100270.59;4953104;28;20593;-82
2024/01/04 00:26:10;;;;;;;78.10;44.50;;;;;;;7.58;85.05;100295.31;4964064;28;20614;-82
2024/01/04 00:28:36;;;;;;;70.22;43.65;;;;;;;7.57;85.31;100307.66;4958104;28;20665;-81
2024/01/04 00:31:06;;;;;;;76.22;44.90;;;;;;;7.55;85.61;100312.25;4956238;28;20536;-82
2024/01/04 00:33:36;;;;;;;70.63;42.97;;;;;;;7.52;85.49;100303.72;4955648;28;20164;-82
2024/01/04 00:36:05;;;;;;;67.38;43.53;;;;;;;7.65;85.83;100307.91;4957423;28;20594;-82
2024/01/04 00:38:32;;;;;;;72.53;43.53;;;;;;;7.57;85.27;100309.47;4931170;28;20505;-81
2024/01/04 00:41:01;;;;;;;73.45;44.72;;;;;;;7.45;85.23;100309.50;4945490;28;20137;-82
2024/01/04 00:43:30;;;;;;;69.55;41.90;;;;;;;7.46;85.72;100327.03;4916453;28;20054;-82
2024/01/04 00:45:58;;;;;;;76.32;42.90;;;;;;;7.43;85.33;100332.56;4913339;28;20515;-81
2024/01/04 00:48:25;;;;;;;70.93;43.10;;;;;;;7.34;85.03;100330.66;4936924;28;20053;-82
2024/01/04 00:50:55;;;;;;;79.45;45.03;;;;;;;7.23;86.12;100317.44;4943427;28;20448;-81
2024/01/04 00:53:23;;;;;;;75.80;44.78;;;;;;;7.00;86.15;100277.06;4956084;28;20042;-80
2024/01/04 00:55:50;;;;;;;73.43;43.08;;;;;;;7.03;86.07;100282.91;4952484;28;20053;-80
2024/01/04 00:58:17;;;;;;;70.00;45.72;;;;;;;7.09;85.58;100301.88;4957782;28;20054;-79
2024/01/04 01:00:43;;;;;;;78.35;43.17;;;;;;;6.97;85.95;100299.25;4952660;28;20048;-79
2024/01/04 01:03:12;;;;;;;75.68;44.50;;;;;;;7.23;86.11;100325.38;4950415;28;20065;-80
2024/01/04 01:05:39;;;;;;;79.40;43.30;;;;;;;7.25;86.41;100334.84;4959504;28;20146;-79
2024/01/04 01:08:06;;;;;;;77.57;44.10;;;;;;;7.21;86.59;100319.41;4962561;28;20129;-79
2024/01/04 01:10:39;;;;;;;90.32;47.75;;;;;;;7.37;86.08;100333.03;4957651;28;20050;-80
2024/01/04 01:13:06;;;;;;;71.63;42.97;;;;;;;7.16;86.25;100310.97;4956443;28;20405;-81
2024/01/04 01:15:33;;;;;;;71.22;41.42;;;;;;;7.20;85.62;100309.78;4956663;28;20050;-79
2024/01/04 01:18:00;;;;;;;75.20;38.58;;;;;;;7.34;85.36;100338.56;4958155;28;20060;-81
2024/01/04 01:20:28;;;;;;;62.78;38.47;;;;;;;6.35;85.12;100197.66;4959824;28;20359;-80
2024/01/04 01:22:56;;;;;;;58.47;37.15;;;;;;;7.21;85.25;100345.81;4959218;28;20065;-81
2024/01/04 01:25:23;;;;;;;62.38;37.60;;;;;;;7.24;85.06;100359.59;4959681;28;20533;-80
2024/01/04 01:27:50;;;;;;;69.47;37.42;;;;;;;6.62;84.62;100268.53;4956415;28;20050;-80
2024/01/04 01:30:17;;;;;;;76.45;40.42;;;;;;;6.95;85.11;100337.28;4961516;28;20054;-79
2024/01/04 01:32:43;;;;;;;95.68;42.28;;;;;;;6.98;84.75;100353.69;4954164;28;20862;-80
2024/01/04 01:35:10;;;;;;;114.63;44.20;;;;;;;7.13;84.65;100383.34;4953511;28;20058;-79
2024/01/04 01:37:37;;;;;;;100.60;44.70;;;;;;;6.82;85.79;100363.75;4960181;28;20057;-81
2024/01/04 01:40:06;;;;;;;136.88;47.42;;;;;;;6.88;86.39;100378.28;4960883;28;20057;-80
2024/01/04 01:42:33;;;;;;;117.35;45.67;;;;;;;6.74;87.28;100374.06;4958173;28;20061;-80
2024/01/04 01:45:00;;;;;;;192.40;50.33;;;;;;;6.58;87.58;100354.16;4965862;28;20150;-81
2024/01/04 01:47:28;;;;;;;133.35;48.10;;;;;;;6.64;87.60;100395.88;4951838;28;20370;-79
2024/01/04 01:49:56;;;;;;;199.68;51.65;;;;;;;6.35;88.55;100350.59;4962051;28;20050;-80
2024/01/04 01:52:23;;;;;;;136.98;48.28;;;;;;;6.46;89.70;100389.34;4935522;28;20765;-79
2024/01/04 01:54:56;;;;;;;130.23;46.70;;;;;;;6.40;90.52;100389.81;4907381;28;20459;-79
2024/01/04 01:57:32;;;;;;;126.63;45.47;;;;;;;6.37;90.94;100380.31;4931253;28;20138;-81
2024/01/04 02:00:00;;;;;;;199.00;48.78;;;;;;;6.39;91.08;100380.22;4936629;28;20046;-80
2024/01/04 02:02:27;;;;;;;138.65;48.85;;;;;;;6.35;91.71;100392.78;4956688;28;20069;-80
2024/01/04 02:04:55;;;;;;;155.55;48.70;;;;;;;6.39;91.41;100409.22;4966849;28;20052;-82
2024/01/04 02:07:23;;;;;;;219.18;50.75;;;;;;;6.23;90.40;100382.31;4967463;28;20057;-81
2024/01/04 02:09:50;;;;;;;190.90;49.25;;;;;;;6.49;90.06;100430.47;4959926;28;20084;-80
2024/01/04 02:12:17;;;;;;;244.48;56.13;;;;;;;6.38;90.58;100441.81;4961420;28;20397;-79
2024/01/04 02:14:44;;;;;;;151.80;46.55;;;;;;;6.22;90.97;100410.47;4954469;28;20046;-80
2024/01/04 02:17:11;;;;;;;123.60;46.17;;;;;;;6.08;91.37;100397.47;4952494;28;20050;-79
2024/01/04 02:19:40;;;;;;;101.03;45.03;;;;;;;5.83;91.49;100364.97;4951827;28;20471;-80
2024/01/04 02:22:07;;;;;;;96.03;44.65;;;;;;;6.13;92.22;100425.16;4959607;28;20050;-81
2024/01/04 02:24:37;;;;;;;155.40;49.03;;;;;;;5.87;92.28;100366.41;4939569;28;20042;-80
2024/01/04 02:27:04;;;;;;;104.28;44.97;;;;;;;6.15;91.68;100409.25;4922460;28;20440;-81
2024/01/04 02:29:33;;;;;;;183.32;48.97;;;;;;;6.24;92.51;100441.97;4944693;28;20058;-79
2024/01/04 02:32:04;;;;;;;111.45;41.30;;;;;;;5.86;91.93;100369.19;4941622;28;20137;-80
2024/01/04 02:34:32;;;;;;;120.80;44.20;;;;;;;6.28;92.50;100438.16;4935690;28;20501;-80
2024/01/04 02:36:59;;;;;;;148.50;43.67;;;;;;;6.18;92.34;100428.28;4945663;28;20361;-79
2024/01/04 02:39:26;;;;;;;140.00;46.45;;;;;;;6.34;92.13;100440.38;4954683;28;20387;-78
2024/01/04 02:41:54;;;;;;;95.40;41.13;;;;;;;5.98;92.48;100395.50;4953575;28;20046;-79
2024/01/04 02:44:21;;;;;;;94.90;41.40;;;;;;;6.23;93.28;100442.94;4963011;28;20339;-79
2024/01/04 02:46:50;;;;;;;124.82;45.88;;;;;;;6.23;93.37;100440.31;4956011;28;20066;-79
2024/01/04 02:49:17;;;;;;;86.55;41.90;;;;;;;6.37;92.53;100442.78;4952954;28;20054;-78
2024/01/04 02:51:50;;;;;;;104.53;43.20;;;;;;;6.35;92.26;100426.22;4964832;28;20051;-80
2024/01/04 02:54:17;;;;;;;78.30;41.13;;;;;;;6.12;92.61;100405.03;4948627;28;20062;-78
2024/01/04 02:56:44;;;;;;;84.38;43.13;;;;;;;6.17;92.74;100429.25;4944557;28;20054;-78
2024/01/04 02:59:13;;;;;;;71.20;41.42;;;;;;;6.31;93.18;100432.66;4941114;28;20474;-77
2024/01/04 03:01:43;;;;;;;74.95;40.60;;;;;;;6.38;92.74;100434.75;4937902;28;20122;-79
2024/01/04 03:04:10;;;;;;;77.43;42.35;;;;;;;6.18;92.45;100407.22;4936667;28;20050;-78
2024/01/04 03:06:38;;;;;;;71.78;40.42;;;;;;;6.17;93.28;100424.00;4944607;28;20066;-80
2024/01/04 03:09:06;;;;;;;74.18;39.72;;;;;;;6.30;93.05;100431.00;4934199;28;20513;-79
2024/01/04 03:11:33;;;;;;;83.85;40.47;;;;;;;6.29;93.75;100434.59;4952429;28;20054;-78
2024/01/04 03:14:00;;;;;;;66.20;40.33;;;;;;;6.30;93.03;100417.81;4956343;28;20050;-79
2024/01/04 03:16:36;;;;;;;73.43;40.90;;;;;;;6.08;93.17;100368.47;4960218;28;20050;-80
2024/01/04 03:19:09;;;;;;;67.78;39.38;;;;;;;6.18;92.45;100372.94;4962094;28;20050;-77
2024/01/04 03:21:41;;;;;;;66.90;39.95;;;;;;;5.90;92.46;100329.31;4962428;28;20414;-78
2024/01/04 03:24:08;;;;;;;67.55;39.08;;;;;;;6.29;92.84;100381.88;4952606;28;20523;-78
2024/01/04 03:26:35;;;;;;;63.17;38.30;;;;;;;6.50;92.25;100409.25;4934843;28;20047;-77
2024/01/04 03:29:02;;;;;;;64.78;38.85;;;;;;;6.42;91.87;100401.09;4938085;28;20042;-79
2024/01/04 03:31:29;;;;;;;62.28;36.30;;;;;;;6.40;91.67;100384.53;4962852;28;20058;-78
2024/01/04 03:34:00;;;;;;;65.28;38.40;;;;;;;6.47;91.84;100391.03;4953398;28;20677;-79
2024/01/04 03:36:27;;;;;;;57.70;36.13;;;;;;;5.77;91.03;100260.88;4959859;28;20504;-80
2024/01/04 03:38:55;;;;;;;61.55;37.92;;;;;;;6.47;91.38;100384.91;4964234;28;20494;-80
2024/01/04 03:41:22;;;;;;;60.15;37.72;;;;;;;6.40;90.98;100363.44;4936073;28;20074;-79
2024/01/04 03:43:50;;;;;;;62.13;35.35;;;;;;;6.41;90.95;100368.59;4953575;28;20376;-79
2024/01/04 03:46:18;;;;;;;59.55;36.78;;;;;;;6.03;90.91;100305.56;4952971;28;20455;-79
2024/01/04 03:48:45;;;;;;;59.42;35.25;;;;;;;6.33;90.53;100356.94;4943678;28;20532;-79
2024/01/04 03:51:13;;;;;;;54.65;35.30;;;;;;;6.26;90.69;100346.00;4948660;28;20414;-80
2024/01/04 03:53:40;;;;;;;54.58;34.83;;;;;;;5.89;90.67;100309.19;4945288;28;20140;-79
2024/01/04 03:56:10;;;;;;;54.30;31.67;;;;;;;6.38;90.38;100386.44;4957162;28;20054;-79
2024/01/04 03:58:38;;;;;;;53.85;35.17;;;;;;;5.71;90.61;100281.59;4959670;28;20054;-79
2024/01/04 04:01:05;;;;;;;55.00;33.47;;;;;;;6.39;90.03;100393.41;4961396;28;20064;-79
2024/01/04 04:03:35;;;;;;;48.05;33.00;;;;;;;6.50;90.56;100406.59;4952382;28;20303;-77
2024/01/04 04:06:06;;;;;;;55.05;34.58;;;;;;;6.62;90.30;100404.84;4959573;28;20137;-79
2024/01/04 04:08:33;;;;;;;44.90;31.00;;;;;;;6.54;89.94;100397.53;4960194;28;20042;-80
2024/01/04 04:11:01;;;;;;;50.58;31.23;;;;;;;6.50;89.90;100405.78;4952714;28;20804;-79
2024/01/04 04:13:27;;;;;;;53.20;32.03;;;;;;;6.57;89.45;100413.09;4950012;28;20481;-79
2024/01/04 04:15:54;;;;;;;54.00;32.85;;;;;;;6.28;89.85;100353.81;4957351;28;20104;-79
2024/01/04 04:18:21;;;;;;;52.30;32.17;;;;;;;6.61;89.16;100408.47;4953621;28;20352;-79
2024/01/04 04:20:48;;;;;;;50.95;31.45;;;;;;;6.35;88.71;100378.75;4958075;28;20057;-79
2024/01/04 04:23:15;;;;;;;59.35;34.15;;;;;;;6.58;88.47;100409.53;4959940;28;20109;-79
2024/01/04 04:25:42;;;;;;;53.63;33.20;;;;;;;6.45;87.96;100407.91;4950687;28;20051;-79
2024/01/04 04:28:11;;;;;;;51.22;31.75;;;;;;;6.01;87.50;100352.28;4934270;28;20517;-78
2024/01/04 04:30:38;;;;;;;60.70;32.65;;;;;;;6.42;88.02;100430.09;4935779;28;20198;-79
2024/01/04 04:33:05;;;;;;;51.67;34.17;;;;;;;6.28;87.95;100425.81;4955395;28;20050;-78
2024/01/04 04:35:32;;;;;;;58.30;34.03;;;;;;;6.29;88.19;100439.88;4956300;28;20526;-78
2024/01/04 04:38:14;;;;;;;48.25;31.50;;;;;;;6.19;88.36;100435.28;4949399;28;20426;-78
2024/01/04 04:40:41;;;;;;;49.78;33.00;;;;;;;6.15;88.70;100415.34;4913023;28;20726;-79
2024/01/04 04:43:07;;;;;;;50.28;32.40;;;;;;;6.16;88.72;100442.53;4956071;28;20208;-78
2024/01/04 04:45:34;;;;;;;57.45;34.40;;;;;;;6.10;88.85;100443.84;4954435;28;20046;-78
2024/01/04 04:48:01;;;;;;;55.30;33.33;;;;;;;5.81;89.21;100410.81;4963629;28;20129;-77
2024/01/04 04:50:28;;;;;;;48.63;31.50;;;;;;;6.01;88.94;100441.88;4946837;28;20050;-79
2024/01/04 04:52:55;;;;;;;48.78;31.63;;;;;;;5.61;89.12;100370.09;4960321;28;20049;-78
2024/01/04 04:55:22;;;;;;;62.50;32.08;;;;;;;6.08;89.06;100458.91;4951930;28;20136;-79
2024/01/04 04:57:49;;;;;;;51.10;33.20;;;;;;;5.92;89.45;100426.69;4935039;28;20129;-80
2024/01/04 05:00:16;;;;;;;55.28;31.08;;;;;;;6.07;89.14;100457.25;4961107;28;20047;-78
2024/01/04 05:02:43;;;;;;;59.97;32.65;;;;;;;5.92;88.61;100437.22;4953580;28;20055;-79
2024/01/04 05:05:10;;;;;;;52.72;32.10;;;;;;;5.94;88.39;100436.19;4957116;28;20137;-80
2024/01/04 05:07:38;;;;;;;56.97;31.35;;;;;;;6.02;88.27;100469.91;4955122;28;20058;-78
2024/01/04 05:10:06;;;;;;;59.53;33.38;;;;;;;6.02;88.51;100475.19;4941539;28;20050;-79
2024/01/04 05:12:33;;;;;;;58.17;33.13;;;;;;;5.98;88.89;100479.81;4963888;28;20477;-80
2024/01/04 05:15:00;;;;;;;51.75;32.22;;;;;;;5.93;89.51;100479.28;4935422;28;20246;-80
2024/01/04 05:17:27;;;;;;;66.40;34.58;;;;;;;5.97;89.27;100477.28;4963516;28;20053;-78
2024/01/04 05:19:59;;;;;;;57.22;32.25;;;;;;;5.87;89.33;100466.53;4913790;28;20282;-79
2024/01/04 05:22:36;;;;;;;65.25;32.65;;;;;;;5.89;89.47;100471.69;4894330;28;20298;-79
2024/01/04 05:25:17;;;;;;;54.13;31.67;;;;;;;5.90;88.55;100476.03;4897643;28;20267;-79
2024/01/04 05:27:45;;;;;;;49.47;32.97;;;;;;;4.96;89.18;100343.09;4909865;28;20285;-79
2024/01/04 05:30:12;;;;;;;61.92;34.55;;;;;;;5.78;89.45;100478.59;4963459;28;20050;-79
2024/01/04 05:32:39;;;;;;;57.63;32.20;;;;;;;5.93;89.26;100504.78;4961100;28;20050;-79
2024/01/04 05:35:21;;;;;;;56.97;33.30;;;;;;;5.89;89.62;100516.50;4894864;28;20429;-78
2024/01/04 05:37:54;;;;;;;59.95;34.35;;;;;;;5.79;89.87;100525.03;4948414;28;20077;-79
2024/01/04 05:40:21;;;;;;;65.10;33.38;;;;;;;5.58;89.33;100513.34;4957343;28;20077;-80
2024/01/04 05:42:48;;;;;;;53.97;32.28;;;;;;;5.47;89.50;100521.19;4960750;28;20133;-78
2024/01/04 05:45:15;;;;;;;56.00;34.92;;;;;;;5.62;89.77;100551.72;4963410;28;20691;-81
2024/01/04 05:47:44;;;;;;;73.88;36.85;;;;;;;5.54;89.93;100548.78;4955643;28;20523;-81
2024/01/04 05:50:11;;;;;;;64.20;33.40;;;;;;;5.66;89.54;100550.56;4956666;28;20073;-78
2024/01/04 05:52:38;;;;;;;62.28;34.30;;;;;;;5.46;89.42;100524.75;4959424;28;20054;-79
2024/01/04 05:55:08;;;;;;;63.60;33.10;;;;;;;5.66;88.94;100562.91;4956727;28;20057;-80
2024/01/04 05:57:36;;;;;;;52.67;29.85;;;;;;;5.45;89.62;100544.13;4939113;28;20073;-80
2024/01/04 06:00:04;;;;;;;61.40;32.40;;;;;;;5.78;88.71;100578.69;4951164;28;20050;-78
2024/01/04 06:02:32;;;;;;;53.88;31.85;;;;;;;5.50;88.56;100542.88;4966492;28;20058;-79
2024/01/04 06:04:58;;;;;;;58.55;30.92;;;;;;;5.43;88.35;100536.31;4965408;28;20668;-79
2024/01/04 06:07:25;;;;;;;55.95;32.72;;;;;;;5.57;88.54;100572.25;4940583;28;20058;-78
2024/01/04 06:09:55;;;;;;;57.50;32.53;;;;;;;5.35;89.50;100549.19;4967369;28;20046;-79
2024/01/04 06:12:22;;;;;;;45.78;30.92;;;;;;;5.47;90.37;100571.22;4963199;28;20293;-79
2024/01/04 06:14:50;;;;;;;51.38;33.67;;;;;;;5.57;90.44;100569.63;4956613;28;20062;-79
2024/01/04 06:17:20;;;;;;;60.67;35.55;;;;;;;5.47;90.48;100537.81;4961083;28;20042;-79
2024/01/04 06:19:47;;;;;;;55.13;34.60;;;;;;;5.56;90.14;100546.88;4965128;28;20054;-79
2024/01/04 06:22:14;;;;;;;64.18;36.13;;;;;;;5.60;89.94;100558.88;4965100;28;20046;-79
2024/01/04 06:24:46;;;;;;;63.33;36.63;;;;;;;5.63;90.37;100550.78;4946665;28;20580;-80
2024/01/04 06:27:17;;;;;;;67.10;36.45;;;;;;;5.60;89.69;100543.06;4961248;28;20050;-79
2024/01/04 06:29:48;;;;;;;57.80;35.27;;;;;;;5.66;89.29;100558.47;4959578;28;20108;-78
2024/01/04 06:32:20;;;;;;;57.80;34.85;;;;;;;5.62;89.36;100546.44;4959721;28;20345;-78
2024/01/04 06:34:50;;;;;;;58.95;34.70;;;;;;;5.50;89.48;100531.50;4946790;28;20137;-79
2024/01/04 06:37:18;;;;;;;58.97;33.50;;;;;;;5.70;89.59;100574.88;4928031;28;20371;-79
2024/01/04 06:39:50;;;;;;;49.78;33.90;;;;;;;5.60;89.90;100552.78;4959403;28;20084;-80
2024/01/04 06:42:19;;;;;;;56.95;35.28;;;;;;;5.68;89.71;100556.56;4964406;28;20129;-79
2024/01/04 06:44:47;;;;;;;52.58;34.35;;;;;;;5.55;89.61;100524.13;4954706;28;20956;-79
2024/01/04 06:47:14;;;;;;;58.10;33.33;;;;;;;5.92;89.55;100563.69;4951462;28;20449;-80
2024/01/04 06:49:45;;;;;;;46.63;31.88;;;;;;;6.01;89.36;100557.81;4955530;28;20054;-79
2024/01/04 06:52:12;;;;;;;52.70;32.20;;;;;;;5.88;89.54;100520.09;4949442;28;20047;-80
2024/01/04 06:54:39;;;;;;;46.33;29.48;;;;;;;5.51;88.69;100469.97;4944368;28;20368;-78
2024/01/04 06:57:06;;;;;;;55.25;31.27;;;;;;;5.91;88.03;100556.75;4948040;28;20065;-80
2024/01/04 06:59:34;;;;;;;52.95;31.92;;;;;;;5.96;88.18;100555.50;4951061;28;20101;-79
2024/01/04 07:02:06;;;;;;;46.90;29.88;;;;;;;5.47;88.61;100464.09;4921702;28;1230326;-80
2024/01/04 07:04:34;;;;;;;49.80;32.33;;;;;;;6.08;88.98;100539.78;4956818;28;20571;-81
2024/01/04 07:07:01;;;;;;;43.78;29.05;;;;;;;6.06;89.02;100518.81;4977059;28;20144;-81
2024/01/04 07:09:28;;;;;;;49.72;30.92;;;;;;;6.06;89.21;100516.16;4969004;28;20064;-81
2024/01/04 07:11:55;;;;;;;51.13;31.23;;;;;;;6.09;89.65;100501.91;4973273;28;20466;-81
2024/01/04 07:14:22;;;;;;;48.88;30.27;;;;;;;6.16;89.00;100509.28;4963931;28;20269;-81
2024/01/04 07:16:50;;;;;;;45.15;28.65;;;;;;;6.16;89.19;100538.28;4967152;28;20383;-81
2024/01/04 07:19:19;;;;;;;51.92;30.40;;;;;;;6.09;88.88;100557.28;4947510;28;20492;-81
2024/01/04 07:21:47;;;;;;;44.17;28.80;;;;;;;5.85;88.90;100534.31;4962447;28;20581;-81
2024/01/04 07:24:16;;;;;;;42.70;29.40;;;;;;;5.03;89.30;100406.66;4958674;28;20510;-80
2024/01/04 07:26:43;;;;;;;45.38;29.95;;;;;;;6.33;89.39;100586.31;4945293;28;20053;-81
2024/01/04 07:29:10;;;;;;;44.60;29.75;;;;;;;6.39;89.75;100591.16;4937983;28;20531;-80
2024/01/04 07:31:36;;;;;;;44.17;28.52;;;;;;;6.25;89.60;100580.75;4962953;28;20426;-79
2024/01/04 07:34:03;;;;;;;46.28;28.48;;;;;;;6.01;88.90;100554.34;4957328;28;20049;-79
2024/01/04 07:36:30;;;;;;;43.05;27.60;;;;;;;6.30;88.38;100610.28;4971484;28;20050;-80
2024/01/04 07:38:58;;;;;;;43.20;27.25;;;;;;;6.18;89.13;100610.19;4968214;28;20668;-80
2024/01/04 07:41:25;;;;;;;56.65;29.48;;;;;;;6.35;89.83;100626.59;4972706;28;20046;-79
2024/01/04 07:43:55;;;;;;;43.92;29.90;;;;;;;6.38;91.06;100613.19;4960488;28;20060;-80
2024/01/04 07:46:21;;;;;;;35.92;24.63;;;;;;;6.27;90.71;100578.88;4954095;28;20133;-80
2024/01/04 07:48:48;;;;;;;43.58;27.33;;;;;;;6.56;91.17;100603.97;4960893;28;20074;-80
2024/01/04 07:51:18;;;;;;;36.45;24.15;;;;;;;6.64;90.63;100627.16;4946682;28;20133;-80
2024/01/04 07:53:46;;;;;;;33.47;20.85;;;;;;;6.80;89.91;100640.09;4949594;28;20464;-79
2024/01/04 07:56:21;;;;;;;32.45;19.77;;;;;;;6.88;89.46;100626.34;4955774;28;20520;-80
2024/01/04 07:58:48;;;;;;;28.80;19.00;;;;;;;7.04;88.95;100632.19;4936913;28;20470;-80
2024/01/04 08:01:16;;;;;;;33.88;18.63;;;;;;;7.03;88.47;100604.09;4946258;28;20050;-79
2024/01/04 08:03:47;;;;;;;31.45;19.88;;;;;;;7.15;87.88;100605.00;4966099;28;20058;-80
2024/01/04 08:06:15;;;;;;;34.17;20.77;;;;;;;7.15;87.95;100597.06;4948215;28;20043;-81
2024/01/04 08:08:42;;;;;;;31.80;19.92;;;;;;;7.15;87.23;100571.50;4935759;28;20050;-78
2024/01/04 08:11:09;;;;;;;32.17;20.83;;;;;;;7.40;87.42;100623.34;4959818;28;20138;-81
2024/01/04 08:13:37;;;;;;;29.85;19.67;;;;;;;7.48;86.69;100633.31;4957876;28;20112;-82
2024/01/04 08:16:04;;;;;;;34.42;21.05;;;;;;;7.64;86.54;100643.56;4964360;28;20121;-80
2024/01/04 08:18:31;;;;;;;28.85;20.73;;;;;;;7.62;85.40;100643.69;4963649;28;20677;-81
2024/01/04 08:21:01;;;;;;;34.72;20.10;;;;;;;7.64;86.03;100646.19;4937962;28;20046;-82
2024/01/04 08:23:30;;;;;;;34.55;20.42;;;;;;;7.69;85.22;100628.19;4943297;28;20054;-82
2024/01/04 08:25:57;;;;;;;31.05;19.17;;;;;;;7.73;84.98;100615.59;4945031;28;20051;-81
2024/01/04 08:28:24;;;;;;;28.50;18.40;;;;;;;7.82;84.66;100613.09;4947009;28;20545;-81
2024/01/04 08:30:51;;;;;;;25.90;17.33;;;;;;;7.99;84.43;100617.06;4939762;28;20577;-81
2024/01/04 08:33:18;;;;;;;32.42;17.65;;;;;;;7.89;83.91;100587.88;4939903;28;20330;-82
2024/01/04 08:35:45;;;;;;;23.75;16.48;;;;;;;6.80;83.65;100397.34;4941513;28;20250;-81
2024/01/04 08:38:12;;;;;;;29.08;18.10;;;;;;;7.99;84.04;100576.59;4923521;28;20316;-81
2024/01/04 08:40:39;;;;;;;31.00;16.80;;;;;;;8.13;83.40;100586.88;4945717;28;20133;-80
2024/01/04 08:43:06;;;;;;;21.40;14.27;;;;;;;7.71;83.35;100510.00;4962274;28;20134;-81
2024/01/04 08:45:40;;;;;;;29.73;16.20;;;;;;;8.17;83.44;100600.72;4928517;28;20050;-81
2024/01/04 08:48:09;;;;;;;24.45;15.75;;;;;;;8.17;84.00;100596.28;4914461;28;20604;-81
2024/01/04 08:50:40;;;;;;;24.15;16.02;;;;;;;7.93;84.22;100567.31;4952383;28;20057;-82
2024/01/04 08:53:08;;;;;;;31.60;17.65;;;;;;;8.13;83.78;100600.09;4957407;28;20067;-81
2024/01/04 08:55:34;;;;;;;25.45;16.23;;;;;;;8.26;84.01;100611.41;4967242;28;20406;-81
2024/01/04 08:58:03;;;;;;;30.08;14.82;;;;;;;8.32;83.57;100595.03;4970858;28;20545;-81
2024/01/04 09:00:34;;;;;;;25.88;15.20;;;;;;;8.65;82.16;100617.16;4966630;28;20070;-81
2024/01/04 09:03:01;;;;;;;28.20;14.98;;;;;;;8.66;82.39;100615.34;4971064;28;20489;-82
2024/01/04 09:05:28;;;;;;;24.80;14.18;;;;;;;8.66;81.55;100618.84;4967716;28;20388;-81
2024/01/04 09:07:55;;;;;;;27.38;14.55;;;;;;;8.48;81.55;100584.13;4969493;28;20566;-81
2024/01/04 09:10:24;;;;;;;28.73;14.55;;;;;;;8.71;nan;100629.06;4958197;28;20066;-81
2024/01/04 09:12:51;;;;;;;25.65;14.43;;;;;;;8.45;81.11;100575.59;4969429;28;20050;-80
2024/01/04 09:15:18;;;;;;;32.17;14.02;;;;;;;8.77;81.26;100625.94;4965077;28;20495;-82
2024/01/04 09:17:45;;;;;;;25.98;14.98;;;;;;;8.96;80.54;100649.09;4946504;28;20051;-82
2024/01/04 09:20:18;;;;;;;28.98;15.80;;;;;;;9.00;80.75;100653.16;4940475;28;20145;-82
2024/01/04 09:22:45;;;;;;;26.30;14.35;;;;;;;9.08;80.55;100666.63;4937870;28;20479;-80
2024/01/04 09:25:12;;;;;;;24.73;14.48;;;;;;;9.15;80.52;100654.59;4943726;28;20261;-82
2024/01/04 09:27:39;;;;;;;27.33;14.93;;;;;;;9.25;79.99;100659.09;4954042;28;20046;-81
2024/01/04 09:30:09;;;;;;;22.42;14.68;;;;;;;9.15;79.89;100630.75;4936112;28;20444;-81
2024/01/04 09:32:37;;;;;;;28.58;14.75;;;;;;;9.09;79.48;100620.63;4961498;28;20218;-81
2024/01/04 09:35:05;;;;;;;22.20;13.82;;;;;;;9.31;79.25;100642.72;4953806;28;20086;-81
2024/01/04 09:37:32;;;;;;;32.38;16.05;;;;;;;9.53;78.50;100662.97;4949562;28;20047;-82
2024/01/04 09:39:59;;;;;;;27.00;14.60;;;;;;;9.36;78.15;100627.25;4943923;28;20407;-81
2024/01/04 09:42:29;;;;;;;24.90;14.65;;;;;;;9.57;78.59;100654.63;4964165;28;20375;-82
2024/01/04 09:44:59;;;;;;;34.40;14.73;;;;;;;9.69;77.93;100673.13;4950354;28;20042;-82
2024/01/04 09:47:29;;;;;;;24.23;13.15;;;;;;;9.69;77.70;100643.97;4946336;28;20726;-81
2024/01/04 09:49:59;;;;;;;23.30;15.32;;;;;;;9.52;77.24;100603.81;4950421;28;20047;-78
2024/01/04 09:52:30;;;;;;;24.27;14.23;;;;;;;9.96;77.66;100667.28;4952274;28;20073;-82
2024/01/04 09:54:59;;;;;;;26.73;13.48;;;;;;;10.09;76.54;100672.38;4961314;28;20480;-80
2024/01/04 09:57:27;;;;;;;22.55;15.23;;;;;;;10.06;75.93;100669.03;4954920;28;20050;-81
2024/01/04 09:59:58;;;;;;;25.02;15.73;;;;;;;10.04;75.92;100662.16;4962427;28;20046;-82
2024/01/04 10:02:25;;;;;;;23.65;14.35;;;;;;;9.47;75.80;100582.19;4966835;28;20062;-79
2024/01/04 10:04:52;;;;;;;23.38;14.35;;;;;;;10.02;76.25;100662.31;4964402;28;20301;-80
2024/01/04 10:07:25;;;;;;;23.95;15.07;;;;;;;9.98;76.08;100655.59;4962648;28;20128;-81
2024/01/04 10:09:59;;;;;;;30.52;15.18;;;;;;;10.13;76.97;100679.13;4961673;28;20046;-80
2024/01/04 10:12:36;;;;;;;27.90;16.02;;;;;;;10.17;76.13;100662.81;4952214;28;20326;-79
2024/01/04 10:15:11;;;;;;;29.02;14.90;;;;;;;10.14;76.64;100678.13;4897505;28;20307;-82
2024/01/04 10:17:40;;;;;;;23.50;14.85;;;;;;;10.10;76.62;100650.19;4917224;28;20416;-80
2024/01/04 10:20:08;;;;;;;29.35;14.88;;;;;;;10.13;76.99;100664.03;4893790;28;20207;-82
2024/01/04 10:22:38;;;;;;;29.10;15.77;;;;;;;10.25;76.65;100662.13;4937780;28;20746;-82
2024/01/04 10:25:12;;;;;;;26.17;14.13;;;;;;;10.30;75.80;100665.25;4958345;28;20053;-80
2024/01/04 10:27:39;;;;;;;28.17;15.77;;;;;;;10.34;75.82;100666.69;4962314;28;20282;-79
2024/01/04 10:30:07;;;;;;;28.60;15.55;;;;;;;10.24;76.07;100641.88;4957324;28;20054;-80
2024/01/04 10:32:35;;;;;;;22.90;14.65;;;;;;;10.43;75.44;100644.63;4950278;28;20502;-80
2024/01/04 10:35:04;;;;;;;28.25;14.55;;;;;;;10.45;75.00;100648.00;4954993;28;20652;-80
2024/01/04 10:37:34;;;;;;;32.45;16.27;;;;;;;10.30;75.09;100606.88;4953405;28;20049;-81
2024/01/04 10:40:03;;;;;;;27.85;14.68;;;;;;;10.45;75.64;100626.75;4937493;28;20054;-81
2024/01/04 10:42:32;;;;;;;26.60;16.45;;;;;;;10.36;74.57;100606.34;4957396;28;20233;-80
2024/01/04 10:44:59;;;;;;;30.95;15.77;;;;;;;10.56;75.89;100636.44;4927927;28;20301;-80
2024/01/04 10:47:29;;;;;;;23.52;14.82;;;;;;;10.47;74.79;100581.50;4913551;28;20054;-81
2024/01/04 10:49:58;;;;;;;31.58;15.95;;;;;;;10.87;74.61;100634.56;4910216;28;20505;-79
2024/01/04 10:52:30;;;;;;;25.00;15.27;;;;;;;10.94;74.66;100634.00;4963256;28;20495;-79
2024/01/04 10:55:00;;;;;;;31.90;16.85;;;;;;;10.57;73.94;100555.00;4951646;28;20054;-79
2024/01/04 10:57:31;;;;;;;27.08;15.27;;;;;;;11.03;74.01;100619.91;4955136;28;20567;-81
2024/01/04 11:00:07;;;;;;;33.63;16.90;;;;;;;10.98;74.48;100611.50;4954640;28;20301;-81
2024/01/04 11:02:44;;;;;;;30.02;16.08;;;;;;;10.87;74.27;100573.47;4905348;28;20324;-81
2024/01/04 11:05:21;;;;;;;36.40;17.73;;;;;;;11.09;74.86;100606.03;4954636;28;20144;-79
2024/01/04 11:07:49;;;;;;;25.88;16.58;;;;;;;11.15;74.84;100602.00;4957299;28;20042;-80
2024/01/04 11:10:19;;;;;;;29.80;16.00;;;;;;;10.83;74.21;100528.75;4948904;28;20070;-82
2024/01/04 11:12:52;;;;;;;29.92;17.25;;;;;;;11.20;74.69;100584.66;4951130;28;20046;-81
2024/01/04 11:15:19;;;;;;;37.17;17.20;;;;;;;11.22;74.71;100588.00;4958201;28;20097;-81
2024/01/04 11:18:13;;;;;;;30.60;16.10;;;;;;;11.13;74.52;100562.28;4948058;28;20056;-81
2024/01/04 11:20:49;;;;;;;23.13;14.98;;;;;;;11.32;74.63;100567.56;4963233;28;20050;-81